createdAt,value
2018-03-14T00:00:52.067Z,971.74
2018-03-14T00:01:51.984Z,971.70
2018-03-14T00:02:51.899Z,971.72
2018-03-14T00:03:51.820Z,971.75
2018-03-14T00:04:51.742Z,971.78
2018-03-14T00:05:51.654Z,971.70
2018-03-14T00:06:51.570Z,971.74
2018-03-14T00:07:51.490Z,971.80
2018-03-14T00:08:51.408Z,971.73
2018-03-14T00:09:51.324Z,971.85
2018-03-14T00:10:51.241Z,971.80
2018-03-14T00:11:51.158Z,971.86
2018-03-14T00:12:51.076Z,971.83
2018-03-14T00:13:50.993Z,971.88
2018-03-14T00:14:50.908Z,971.88
2018-03-14T00:15:50.830Z,971.92
2018-03-14T00:16:50.745Z,971.92
2018-03-14T00:17:50.663Z,971.93
2018-03-14T00:18:50.580Z,971.94
2018-03-14T00:19:50.498Z,971.96
2018-03-14T00:20:50.417Z,971.99
2018-03-14T00:21:50.334Z,972.01
2018-03-14T00:22:50.251Z,971.99
2018-03-14T00:23:50.167Z,971.96
2018-03-14T00:24:50.086Z,971.95
2018-03-14T00:25:50.005Z,972.08
2018-03-14T00:26:49.922Z,972.02
2018-03-14T00:27:49.838Z,972.07
2018-03-14T00:28:49.755Z,972.09
2018-03-14T00:29:49.673Z,972.09
2018-03-14T00:30:49.589Z,972.13
2018-03-14T00:31:49.506Z,972.14
2018-03-14T00:32:49.426Z,972.11
2018-03-14T00:33:49.342Z,972.16
2018-03-14T00:34:49.432Z,972.18
2018-03-14T00:35:49.178Z,972.17
2018-03-14T00:36:49.095Z,972.17
2018-03-14T00:37:49.013Z,972.24
2018-03-14T00:38:48.928Z,972.28
2018-03-14T00:39:48.849Z,972.25
2018-03-14T00:40:48.765Z,972.24
2018-03-14T00:41:48.684Z,972.32
2018-03-14T00:42:48.602Z,972.27
2018-03-14T00:43:48.517Z,972.27
2018-03-14T00:44:48.436Z,972.26
2018-03-14T00:45:48.354Z,972.25
2018-03-14T00:46:48.270Z,972.25
2018-03-14T00:47:48.189Z,972.23
2018-03-14T00:48:48.106Z,972.25
2018-03-14T00:49:48.029Z,972.26
2018-03-14T00:50:47.945Z,972.23
2018-03-14T00:51:47.859Z,972.30
2018-03-14T00:52:47.782Z,972.26
2018-03-14T00:53:47.694Z,972.32
2018-03-14T00:54:47.609Z,972.29
2018-03-14T00:55:47.531Z,972.25
2018-03-14T00:56:47.448Z,972.30
2018-03-14T00:57:47.365Z,972.38
2018-03-14T00:58:47.284Z,972.29
2018-03-14T00:59:47.198Z,972.31
2018-03-14T01:00:47.122Z,972.30
2018-03-14T01:01:47.035Z,972.31
2018-03-14T01:02:46.951Z,972.31
2018-03-14T01:03:49.048Z,972.35
2018-03-14T01:04:46.788Z,972.32
2018-03-14T01:05:46.705Z,972.35
2018-03-14T01:06:46.621Z,972.30
2018-03-14T01:07:46.540Z,972.34
2018-03-14T01:08:46.455Z,972.40
2018-03-14T01:09:46.374Z,972.32
2018-03-14T01:10:46.289Z,972.34
2018-03-14T01:11:46.210Z,972.31
2018-03-14T01:12:46.147Z,972.28
2018-03-14T01:13:46.047Z,972.35
2018-03-14T01:14:45.965Z,972.34
2018-03-14T01:15:45.880Z,972.33
2018-03-14T01:16:45.799Z,972.33
2018-03-14T01:17:45.718Z,972.35
2018-03-14T01:18:45.630Z,972.31
2018-03-14T01:19:45.549Z,972.33
2018-03-14T01:20:45.470Z,972.32
2018-03-14T01:21:45.384Z,972.34
2018-03-14T01:22:45.300Z,972.32
2018-03-14T01:23:45.218Z,972.32
2018-03-14T01:24:45.138Z,972.32
2018-03-14T01:25:45.054Z,972.31
2018-03-14T01:26:44.970Z,972.32
2018-03-14T01:27:44.889Z,972.30
2018-03-14T01:28:44.809Z,972.33
2018-03-14T01:29:44.722Z,972.37
2018-03-14T01:30:44.640Z,972.35
2018-03-14T01:31:44.560Z,972.36
2018-03-14T01:32:44.480Z,972.33
2018-03-14T01:33:44.394Z,972.37
2018-03-14T01:34:44.310Z,972.35
2018-03-14T01:35:44.227Z,972.37
2018-03-14T01:36:44.159Z,972.37
2018-03-14T01:37:44.064Z,972.39
2018-03-14T01:38:43.981Z,972.34
2018-03-14T01:39:43.898Z,972.36
2018-03-14T01:40:43.814Z,972.37
2018-03-14T01:41:43.732Z,972.38
2018-03-14T01:42:43.647Z,972.44
2018-03-14T01:43:43.564Z,972.39
2018-03-14T01:44:43.484Z,972.40
2018-03-14T01:45:43.400Z,972.39
2018-03-14T01:46:43.318Z,972.41
2018-03-14T01:47:43.239Z,972.41
2018-03-14T01:48:43.150Z,972.40
2018-03-14T01:49:43.076Z,972.42
2018-03-14T01:50:42.986Z,972.42
2018-03-14T01:51:42.903Z,972.42
2018-03-14T01:52:42.821Z,972.45
2018-03-14T01:53:42.739Z,972.48
2018-03-14T01:54:42.656Z,972.49
2018-03-14T01:55:42.577Z,972.40
2018-03-14T01:56:42.494Z,972.47
2018-03-14T01:57:42.410Z,972.44
2018-03-14T01:58:42.327Z,972.48
2018-03-14T01:59:42.243Z,972.45
2018-03-14T02:00:42.160Z,972.50
2018-03-14T02:01:42.080Z,972.46
2018-03-14T02:02:41.995Z,972.49
2018-03-14T02:03:41.914Z,972.51
2018-03-14T02:04:41.830Z,972.50
2018-03-14T02:05:41.751Z,972.55
2018-03-14T02:06:41.663Z,972.51
2018-03-14T02:07:41.581Z,972.55
2018-03-14T02:08:41.507Z,972.53
2018-03-14T02:09:41.418Z,972.62
2018-03-14T02:10:41.333Z,972.63
2018-03-14T02:11:41.249Z,972.59
2018-03-14T02:12:41.168Z,972.63
2018-03-14T02:13:41.095Z,972.59
2018-03-14T02:14:41.001Z,972.61
2018-03-14T02:15:40.920Z,972.61
2018-03-14T02:16:40.841Z,972.63
2018-03-14T02:17:40.754Z,972.62
2018-03-14T02:18:43.336Z,972.62
2018-03-14T02:19:40.609Z,972.66
2018-03-14T02:20:40.503Z,972.68
2018-03-14T02:21:40.424Z,972.63
2018-03-14T02:22:40.480Z,972.63
2018-03-14T02:23:40.258Z,972.63
2018-03-14T02:24:40.174Z,972.63
2018-03-14T02:25:40.091Z,972.64
2018-03-14T02:26:40.009Z,972.69
2018-03-14T02:27:39.932Z,972.64
2018-03-14T02:28:39.849Z,972.70
2018-03-14T02:29:39.762Z,972.68
2018-03-14T02:30:39.677Z,972.67
2018-03-14T02:31:39.592Z,972.64
2018-03-14T02:32:39.513Z,972.70
2018-03-14T02:33:39.430Z,972.70
2018-03-14T02:34:39.350Z,972.68
2018-03-14T02:35:39.264Z,972.72
2018-03-14T02:36:39.183Z,972.67
2018-03-14T02:37:39.104Z,972.73
2018-03-14T02:38:39.017Z,972.73
2018-03-14T02:39:38.932Z,972.68
2018-03-14T02:40:38.847Z,972.69
2018-03-14T02:41:38.765Z,972.71
2018-03-14T02:42:38.684Z,972.69
2018-03-14T02:43:38.602Z,972.68
2018-03-14T02:44:38.518Z,972.74
2018-03-14T02:45:38.441Z,972.73
2018-03-14T02:46:38.352Z,972.75
2018-03-14T02:47:38.271Z,972.74
2018-03-14T02:48:38.189Z,972.76
2018-03-14T02:49:38.104Z,972.77
2018-03-14T02:50:38.019Z,972.79
2018-03-14T02:51:37.956Z,972.76
2018-03-14T02:52:37.855Z,972.78
2018-03-14T02:53:37.781Z,972.79
2018-03-14T02:54:37.690Z,972.83
2018-03-14T02:55:37.607Z,972.80
2018-03-14T02:56:37.523Z,972.82
2018-03-14T02:57:37.442Z,972.86
2018-03-14T02:58:37.379Z,972.87
2018-03-14T02:59:37.274Z,972.88
2018-03-14T03:00:37.195Z,972.90
2018-03-14T03:01:37.111Z,972.90
2018-03-14T03:02:37.026Z,972.92
2018-03-14T03:03:36.945Z,972.96
2018-03-14T03:04:36.860Z,972.95
2018-03-14T03:05:36.779Z,972.98
2018-03-14T03:06:36.716Z,973.02
2018-03-14T03:07:36.611Z,973.01
2018-03-14T03:08:36.530Z,973.03
2018-03-14T03:09:36.452Z,973.03
2018-03-14T03:10:36.364Z,973.03
2018-03-14T03:11:36.279Z,973.05
2018-03-14T03:12:36.198Z,973.03
2018-03-14T03:13:36.116Z,973.05
2018-03-14T03:14:36.031Z,973.06
2018-03-14T03:15:35.950Z,973.05
2018-03-14T03:16:35.870Z,973.10
2018-03-14T03:17:35.788Z,973.09
2018-03-14T03:18:35.702Z,973.09
2018-03-14T03:19:35.620Z,973.06
2018-03-14T03:20:35.536Z,973.06
2018-03-14T03:21:35.453Z,973.08
2018-03-14T03:22:35.372Z,973.10
2018-03-14T03:23:35.287Z,973.08
2018-03-14T03:24:35.203Z,973.08
2018-03-14T03:25:35.126Z,973.13
2018-03-14T03:26:35.039Z,973.11
2018-03-14T03:27:34.955Z,973.09
2018-03-14T03:28:34.872Z,973.12
2018-03-14T03:29:34.794Z,973.16
2018-03-14T03:30:34.705Z,973.17
2018-03-14T03:31:34.626Z,973.19
2018-03-14T03:32:34.564Z,973.22
2018-03-14T03:33:34.456Z,973.24
2018-03-14T03:34:34.400Z,973.22
2018-03-14T03:35:34.291Z,973.25
2018-03-14T03:36:34.210Z,973.26
2018-03-14T03:37:34.126Z,973.26
2018-03-14T03:38:34.050Z,973.25
2018-03-14T03:39:33.961Z,973.29
2018-03-14T03:40:33.877Z,973.24
2018-03-14T03:41:33.794Z,973.23
2018-03-14T03:42:33.718Z,973.28
2018-03-14T03:43:33.643Z,973.30
2018-03-14T03:44:33.543Z,973.31
2018-03-14T03:45:33.464Z,973.29
2018-03-14T03:46:33.380Z,973.31
2018-03-14T03:47:33.300Z,973.32
2018-03-14T03:48:33.224Z,973.32
2018-03-14T03:49:33.130Z,973.31
2018-03-14T03:50:33.049Z,973.31
2018-03-14T03:51:32.966Z,973.33
2018-03-14T03:52:32.885Z,973.35
2018-03-14T03:53:32.798Z,973.33
2018-03-14T03:54:32.717Z,973.35
2018-03-14T03:55:32.634Z,973.39
2018-03-14T03:56:32.549Z,973.35
2018-03-14T03:57:32.468Z,973.34
2018-03-14T03:58:32.383Z,973.37
2018-03-14T03:59:32.301Z,973.40
2018-03-14T04:00:32.215Z,973.40
2018-03-14T04:01:32.135Z,973.43
2018-03-14T04:02:32.055Z,973.43
2018-03-14T04:03:31.968Z,973.44
2018-03-14T04:04:31.888Z,973.41
2018-03-14T04:05:31.803Z,973.44
2018-03-14T04:06:31.719Z,973.43
2018-03-14T04:07:31.640Z,973.46
2018-03-14T04:08:31.553Z,973.45
2018-03-14T04:09:31.472Z,973.43
2018-03-14T04:10:31.388Z,973.46
2018-03-14T04:11:31.304Z,973.45
2018-03-14T04:12:31.224Z,973.46
2018-03-14T04:13:31.148Z,973.43
2018-03-14T04:14:31.053Z,973.44
2018-03-14T04:15:30.971Z,973.46
2018-03-14T04:16:30.889Z,973.42
2018-03-14T04:17:30.806Z,973.46
2018-03-14T04:18:30.720Z,973.42
2018-03-14T04:19:30.638Z,973.46
2018-03-14T04:20:30.554Z,973.48
2018-03-14T04:21:30.472Z,973.47
2018-03-14T04:22:30.389Z,973.49
2018-03-14T04:23:30.312Z,973.49
2018-03-14T04:24:30.225Z,973.53
2018-03-14T04:25:30.144Z,973.49
2018-03-14T04:26:30.057Z,973.52
2018-03-14T04:27:29.975Z,973.49
2018-03-14T04:28:29.890Z,973.54
2018-03-14T04:29:29.821Z,973.57
2018-03-14T04:30:29.725Z,973.53
2018-03-14T04:31:29.656Z,973.53
2018-03-14T04:32:29.583Z,973.53
2018-03-14T04:33:29.475Z,973.52
2018-03-14T04:34:29.392Z,973.54
2018-03-14T04:35:29.310Z,973.58
2018-03-14T04:36:29.227Z,973.51
2018-03-14T04:37:29.146Z,973.53
2018-03-14T04:38:29.059Z,973.54
2018-03-14T04:39:28.986Z,973.57
2018-03-14T04:40:28.894Z,973.59
2018-03-14T04:41:28.810Z,973.58
2018-03-14T04:42:28.728Z,973.59
2018-03-14T04:43:28.644Z,973.56
2018-03-14T04:44:28.574Z,973.58
2018-03-14T04:45:28.481Z,973.56
2018-03-14T04:46:28.393Z,973.58
2018-03-14T04:47:28.326Z,973.60
2018-03-14T04:48:28.231Z,973.60
2018-03-14T04:49:28.147Z,973.58
2018-03-14T04:50:28.063Z,973.64
2018-03-14T04:51:27.984Z,973.65
2018-03-14T04:52:27.899Z,973.63
2018-03-14T04:53:27.813Z,973.67
2018-03-14T04:54:27.732Z,973.64
2018-03-14T04:55:27.649Z,973.66
2018-03-14T04:56:27.568Z,973.66
2018-03-14T04:57:27.482Z,973.64
2018-03-14T04:58:27.397Z,973.67
2018-03-14T04:59:27.317Z,973.66
2018-03-14T05:00:27.232Z,973.63
2018-03-14T05:01:27.150Z,973.67
2018-03-14T05:02:27.066Z,973.66
2018-03-14T05:03:26.981Z,973.65
2018-03-14T05:04:26.933Z,973.69
2018-03-14T05:05:26.816Z,973.68
2018-03-14T05:06:26.736Z,973.69
2018-03-14T05:07:26.666Z,973.73
2018-03-14T05:08:26.568Z,973.74
2018-03-14T05:09:26.484Z,973.74
2018-03-14T05:10:26.404Z,973.77
2018-03-14T05:11:26.318Z,973.74
2018-03-14T05:12:26.233Z,973.73
2018-03-14T05:13:26.154Z,973.76
2018-03-14T05:14:26.068Z,973.77
2018-03-14T05:15:25.986Z,973.77
2018-03-14T05:16:25.902Z,973.75
2018-03-14T05:17:25.824Z,973.80
2018-03-14T05:18:25.734Z,973.77
2018-03-14T05:19:25.706Z,973.84
2018-03-14T05:20:25.569Z,973.80
2018-03-14T05:21:25.487Z,973.84
2018-03-14T05:22:25.402Z,973.80
2018-03-14T05:23:25.318Z,973.84
2018-03-14T05:24:25.268Z,973.85
2018-03-14T05:25:25.160Z,973.86
2018-03-14T05:26:25.070Z,973.87
2018-03-14T05:27:25.006Z,973.88
2018-03-14T05:28:24.905Z,973.86
2018-03-14T05:29:24.824Z,973.90
2018-03-14T05:30:24.754Z,973.91
2018-03-14T05:31:24.658Z,973.94
2018-03-14T05:32:24.573Z,973.92
2018-03-14T05:33:24.488Z,973.93
2018-03-14T05:34:24.406Z,973.92
2018-03-14T05:35:24.322Z,973.94
2018-03-14T05:36:24.240Z,973.92
2018-03-14T05:37:24.157Z,973.94
2018-03-14T05:38:24.083Z,973.93
2018-03-14T05:39:23.991Z,973.91
2018-03-14T05:40:23.908Z,973.97
2018-03-14T05:41:23.824Z,973.98
2018-03-14T05:42:23.741Z,973.99
2018-03-14T05:43:23.658Z,973.98
2018-03-14T05:44:23.584Z,973.96
2018-03-14T05:45:23.493Z,973.98
2018-03-14T05:46:23.407Z,973.98
2018-03-14T05:47:23.328Z,974.00
2018-03-14T05:48:23.245Z,974.03
2018-03-14T05:49:23.163Z,973.99
2018-03-14T05:50:23.078Z,973.99
2018-03-14T05:51:22.993Z,974.00
2018-03-14T05:52:22.913Z,974.01
2018-03-14T05:53:22.829Z,973.96
2018-03-14T05:54:22.744Z,974.01
2018-03-14T05:55:22.664Z,974.02
2018-03-14T05:56:22.579Z,974.01
2018-03-14T05:57:22.500Z,973.99
2018-03-14T05:58:22.413Z,973.99
2018-03-14T05:59:22.331Z,974.06
2018-03-14T06:00:22.249Z,974.02
2018-03-14T06:01:22.164Z,974.04
2018-03-14T06:02:22.078Z,974.02
2018-03-14T06:03:21.999Z,974.07
2018-03-14T06:04:21.916Z,974.08
2018-03-14T06:05:21.892Z,974.06
2018-03-14T06:06:21.749Z,974.08
2018-03-14T06:07:21.667Z,974.15
2018-03-14T06:08:21.582Z,974.14
2018-03-14T06:09:21.500Z,974.12
2018-03-14T06:10:21.425Z,974.13
2018-03-14T06:11:21.340Z,974.11
2018-03-14T06:12:21.254Z,974.12
2018-03-14T06:13:21.170Z,974.16
2018-03-14T06:14:21.088Z,974.15
2018-03-14T06:15:21.003Z,974.15
2018-03-14T06:16:20.935Z,974.15
2018-03-14T06:17:20.837Z,974.16
2018-03-14T06:18:20.774Z,974.19
2018-03-14T06:19:20.677Z,974.22
2018-03-14T06:20:20.589Z,974.20
2018-03-14T06:21:20.508Z,974.21
2018-03-14T06:22:20.424Z,974.22
2018-03-14T06:23:20.342Z,974.26
2018-03-14T06:24:20.259Z,974.26
2018-03-14T06:25:20.187Z,974.30
2018-03-14T06:26:20.093Z,974.29
2018-03-14T06:27:20.007Z,974.31
2018-03-14T06:28:19.926Z,974.29
2018-03-14T06:29:19.844Z,974.33
2018-03-14T06:30:19.760Z,974.32
2018-03-14T06:31:19.678Z,974.33
2018-03-14T06:32:19.597Z,974.34
2018-03-14T06:33:19.513Z,974.37
2018-03-14T06:34:19.438Z,974.37
2018-03-14T06:35:19.345Z,974.39
2018-03-14T06:36:19.266Z,974.39
2018-03-14T06:37:19.182Z,974.37
2018-03-14T06:38:19.100Z,974.41
2018-03-14T06:39:19.014Z,974.46
2018-03-14T06:40:18.932Z,974.43
2018-03-14T06:41:18.850Z,974.50
2018-03-14T06:42:18.787Z,974.48
2018-03-14T06:43:18.688Z,974.52
2018-03-14T06:44:18.600Z,974.52
2018-03-14T06:45:18.517Z,974.52
2018-03-14T06:46:18.436Z,974.55
2018-03-14T06:47:18.352Z,974.54
2018-03-14T06:48:18.273Z,974.52
2018-03-14T06:49:18.189Z,974.57
2018-03-14T06:50:18.105Z,974.56
2018-03-14T06:51:18.022Z,974.57
2018-03-14T06:52:17.941Z,974.57
2018-03-14T06:53:17.859Z,974.57
2018-03-14T06:54:17.774Z,974.57
2018-03-14T06:55:17.689Z,974.59
2018-03-14T06:56:17.608Z,974.56
2018-03-14T06:57:17.532Z,974.56
2018-03-14T06:58:17.444Z,974.54
2018-03-14T06:59:17.360Z,974.55
2018-03-14T07:00:17.280Z,974.57
2018-03-14T07:01:17.196Z,974.59
2018-03-14T07:02:17.114Z,974.59
2018-03-14T07:03:17.037Z,974.53
2018-03-14T07:04:16.949Z,974.57
2018-03-14T07:05:16.932Z,974.62
2018-03-14T07:06:16.791Z,974.60
2018-03-14T07:07:16.699Z,974.62
2018-03-14T07:08:16.618Z,974.66
2018-03-14T07:09:16.582Z,974.64
2018-03-14T07:10:16.478Z,974.63
2018-03-14T07:11:16.373Z,974.63
2018-03-14T07:12:16.287Z,974.61
2018-03-14T07:13:16.269Z,974.63
2018-03-14T07:14:16.122Z,974.63
2018-03-14T07:15:16.038Z,974.67
2018-03-14T07:16:15.956Z,974.66
2018-03-14T07:17:15.873Z,974.64
2018-03-14T07:18:15.789Z,974.67
2018-03-14T07:19:15.708Z,974.67
2018-03-14T07:20:15.628Z,974.66
2018-03-14T07:21:15.545Z,974.67
2018-03-14T07:22:15.460Z,974.72
2018-03-14T07:23:15.376Z,974.69
2018-03-14T07:24:15.296Z,974.73
2018-03-14T07:25:15.219Z,974.71
2018-03-14T07:26:15.131Z,974.74
2018-03-14T07:27:15.047Z,974.68
2018-03-14T07:28:14.966Z,974.70
2018-03-14T07:29:14.910Z,974.70
2018-03-14T07:30:14.805Z,974.71
2018-03-14T07:31:14.718Z,974.71
2018-03-14T07:32:14.644Z,974.69
2018-03-14T07:33:14.552Z,974.66
2018-03-14T07:34:14.470Z,974.76
2018-03-14T07:35:14.387Z,974.71
2018-03-14T07:36:14.303Z,974.75
2018-03-14T07:37:14.224Z,974.76
2018-03-14T07:38:14.138Z,974.79
2018-03-14T07:39:14.054Z,974.76
2018-03-14T07:40:13.976Z,974.76
2018-03-14T07:41:13.891Z,974.77
2018-03-14T07:42:13.829Z,974.74
2018-03-14T07:43:13.723Z,974.76
2018-03-14T07:44:13.643Z,974.77
2018-03-14T07:45:13.560Z,974.86
2018-03-14T07:46:13.478Z,974.78
2018-03-14T07:47:13.394Z,974.79
2018-03-14T07:48:13.839Z,974.78
2018-03-14T07:49:13.229Z,974.78
2018-03-14T07:50:13.145Z,974.81
2018-03-14T07:51:13.063Z,974.81
2018-03-14T07:52:12.982Z,974.79
2018-03-14T07:53:12.900Z,974.79
2018-03-14T07:54:12.816Z,974.83
2018-03-14T07:55:12.733Z,974.86
2018-03-14T07:56:12.650Z,974.91
2018-03-14T07:57:12.568Z,974.91
2018-03-14T07:58:12.486Z,974.90
2018-03-14T07:59:12.407Z,974.90
2018-03-14T08:00:12.324Z,974.90
2018-03-14T08:01:12.246Z,974.88
2018-03-14T08:02:12.155Z,974.91
2018-03-14T08:03:12.073Z,974.89
2018-03-14T08:04:11.990Z,974.88
2018-03-14T08:05:11.908Z,974.90
2018-03-14T08:06:11.824Z,974.89
2018-03-14T08:07:11.742Z,974.88
2018-03-14T08:08:11.685Z,974.88
2018-03-14T08:09:11.579Z,974.87
2018-03-14T08:10:11.495Z,974.83
2018-03-14T08:11:11.414Z,974.86
2018-03-14T08:12:11.331Z,974.85
2018-03-14T08:13:11.250Z,974.89
2018-03-14T08:14:11.173Z,974.89
2018-03-14T08:15:11.082Z,974.89
2018-03-14T08:16:11.022Z,974.90
2018-03-14T08:17:10.921Z,974.92
2018-03-14T08:18:10.838Z,974.91
2018-03-14T08:19:10.755Z,974.91
2018-03-14T08:20:10.674Z,974.94
2018-03-14T08:21:10.591Z,974.92
2018-03-14T08:22:10.510Z,974.88
2018-03-14T08:23:10.425Z,974.92
2018-03-14T08:24:10.345Z,974.91
2018-03-14T08:25:10.267Z,974.91
2018-03-14T08:26:10.181Z,974.90
2018-03-14T08:27:10.098Z,974.94
2018-03-14T08:28:10.018Z,974.92
2018-03-14T08:29:09.936Z,974.89
2018-03-14T08:30:09.853Z,974.93
2018-03-14T08:31:09.769Z,974.91
2018-03-14T08:32:09.695Z,974.94
2018-03-14T08:33:09.618Z,974.93
2018-03-14T08:34:09.524Z,974.91
2018-03-14T08:35:09.440Z,974.92
2018-03-14T08:36:09.383Z,974.90
2018-03-14T08:37:09.284Z,974.88
2018-03-14T08:38:09.195Z,974.86
2018-03-14T08:39:09.127Z,974.85
2018-03-14T08:40:09.036Z,974.85
2018-03-14T08:41:08.955Z,974.86
2018-03-14T08:42:08.871Z,974.86
2018-03-14T08:43:08.794Z,974.87
2018-03-14T08:44:08.706Z,974.87
2018-03-14T08:45:08.623Z,974.85
2018-03-14T08:46:08.540Z,974.87
2018-03-14T08:47:08.461Z,974.88
2018-03-14T08:48:08.458Z,974.88
2018-03-14T08:49:08.298Z,974.85
2018-03-14T08:50:08.277Z,974.87
2018-03-14T08:51:08.132Z,974.93
2018-03-14T08:52:08.055Z,974.93
2018-03-14T08:53:07.970Z,974.96
2018-03-14T08:54:07.893Z,974.97
2018-03-14T08:55:07.868Z,975.00
2018-03-14T08:56:07.732Z,974.99
2018-03-14T08:57:07.689Z,974.98
2018-03-14T08:58:07.562Z,975.00
2018-03-14T08:59:07.479Z,974.99
2018-03-14T09:00:07.399Z,974.94
2018-03-14T09:01:07.317Z,974.96
2018-03-14T09:02:07.235Z,974.94
2018-03-14T09:03:07.151Z,974.98
2018-03-14T09:04:07.093Z,974.92
2018-03-14T09:05:06.991Z,974.92
2018-03-14T09:06:06.906Z,974.97
2018-03-14T09:07:06.882Z,974.96
2018-03-14T09:08:06.743Z,974.96
2018-03-14T09:09:06.661Z,974.94
2018-03-14T09:10:06.581Z,974.96
2018-03-14T09:11:06.524Z,974.95
2018-03-14T09:12:06.418Z,974.98
2018-03-14T09:13:06.333Z,974.97
2018-03-14T09:14:06.252Z,974.94
2018-03-14T09:15:06.170Z,974.97
2018-03-14T09:16:06.087Z,974.93
2018-03-14T09:17:06.008Z,974.98
2018-03-14T09:18:05.922Z,974.97
2018-03-14T09:19:05.841Z,974.98
2018-03-14T09:20:05.763Z,974.99
2018-03-14T09:21:05.680Z,974.96
2018-03-14T09:22:05.596Z,974.99
2018-03-14T09:23:05.512Z,975.01
2018-03-14T09:24:05.431Z,974.99
2018-03-14T09:25:05.351Z,975.00
2018-03-14T09:26:05.273Z,975.05
2018-03-14T09:27:05.187Z,975.04
2018-03-14T09:28:05.105Z,974.99
2018-03-14T09:29:05.021Z,975.03
2018-03-14T09:30:04.942Z,974.98
2018-03-14T09:31:04.856Z,975.01
2018-03-14T09:32:04.776Z,975.04
2018-03-14T09:33:04.695Z,975.03
2018-03-14T09:34:04.613Z,975.02
2018-03-14T09:35:04.545Z,975.02
2018-03-14T09:36:04.450Z,975.05
2018-03-14T09:37:04.368Z,975.01
2018-03-14T09:38:04.286Z,975.03
2018-03-14T09:39:04.212Z,975.05
2018-03-14T09:40:04.124Z,975.04
2018-03-14T09:41:04.043Z,975.04
2018-03-14T09:42:03.961Z,975.00
2018-03-14T09:43:03.878Z,975.03
2018-03-14T09:44:03.797Z,975.04
2018-03-14T09:45:03.716Z,975.06
2018-03-14T09:46:03.646Z,975.05
2018-03-14T09:47:03.555Z,975.08
2018-03-14T09:48:03.469Z,975.08
2018-03-14T09:49:03.391Z,975.07
2018-03-14T09:50:03.307Z,975.06
2018-03-14T09:51:03.227Z,975.10
2018-03-14T09:52:03.142Z,975.08
2018-03-14T09:53:03.060Z,975.05
2018-03-14T09:54:02.982Z,975.05
2018-03-14T09:55:02.899Z,975.03
2018-03-14T09:56:02.818Z,975.05
2018-03-14T09:57:02.738Z,975.05
2018-03-14T09:58:02.651Z,975.05
2018-03-14T09:59:02.570Z,975.07
2018-03-14T10:00:02.490Z,975.06
2018-03-14T10:01:02.417Z,975.13
2018-03-14T10:02:02.325Z,975.09
2018-03-14T10:03:02.244Z,975.14
2018-03-14T10:04:02.162Z,975.14
2018-03-14T10:05:02.081Z,975.14
2018-03-14T10:06:02.001Z,975.11
2018-03-14T10:07:01.917Z,975.11
2018-03-14T10:08:01.836Z,975.12
2018-03-14T10:09:01.757Z,975.11
2018-03-14T10:10:01.672Z,975.07
2018-03-14T10:11:01.591Z,975.06
2018-03-14T10:12:01.510Z,975.01
2018-03-14T10:13:01.429Z,975.05
2018-03-14T10:14:01.424Z,975.03
2018-03-14T10:15:01.264Z,975.00
2018-03-14T10:16:01.184Z,975.03
2018-03-14T10:17:01.102Z,975.00
2018-03-14T10:18:01.018Z,974.99
2018-03-14T10:19:00.936Z,975.00
2018-03-14T10:20:00.855Z,975.00
2018-03-14T10:21:00.776Z,974.99
2018-03-14T10:22:00.694Z,975.03
2018-03-14T10:23:00.613Z,975.00
2018-03-14T10:24:00.536Z,975.03
2018-03-14T10:25:00.452Z,975.02
2018-03-14T10:26:00.372Z,975.07
2018-03-14T10:27:00.288Z,975.02
2018-03-14T10:28:00.210Z,975.00
2018-03-14T10:29:00.128Z,974.98
2018-03-14T10:30:00.045Z,974.98
2018-03-14T10:30:59.966Z,975.01
2018-03-14T10:31:59.881Z,974.99
2018-03-14T10:32:59.809Z,975.01
2018-03-14T10:33:59.719Z,975.01
2018-03-14T10:34:59.638Z,974.99
2018-03-14T10:35:59.561Z,974.98
2018-03-14T10:36:59.481Z,974.99
2018-03-14T10:37:59.393Z,975.02
2018-03-14T10:38:59.312Z,974.99
2018-03-14T10:39:59.232Z,975.02
2018-03-14T10:40:59.149Z,974.98
2018-03-14T10:41:59.066Z,974.97
2018-03-14T10:42:58.985Z,975.03
2018-03-14T10:43:58.907Z,974.99
2018-03-14T10:44:58.824Z,975.01
2018-03-14T10:45:58.740Z,974.99
2018-03-14T10:46:58.664Z,975.00
2018-03-14T10:47:58.582Z,975.01
2018-03-14T10:48:58.501Z,975.00
2018-03-14T10:49:58.418Z,974.99
2018-03-14T10:50:58.336Z,975.02
2018-03-14T10:51:58.256Z,974.97
2018-03-14T10:52:58.172Z,974.98
2018-03-14T10:53:58.093Z,974.96
2018-03-14T10:54:58.014Z,974.97
2018-03-14T10:55:57.929Z,974.96
2018-03-14T10:56:57.848Z,974.95
2018-03-14T10:57:57.766Z,974.94
2018-03-14T10:58:57.684Z,974.93
2018-03-14T10:59:57.602Z,974.95
2018-03-14T11:00:57.524Z,974.94
2018-03-14T11:01:57.440Z,974.93
2018-03-14T11:02:57.360Z,974.92
2018-03-14T11:03:57.280Z,974.90
2018-03-14T11:04:57.196Z,974.90
2018-03-14T11:05:57.117Z,974.89
2018-03-14T11:06:57.036Z,974.87
2018-03-14T11:07:56.953Z,974.89
2018-03-14T11:08:56.876Z,974.81
2018-03-14T11:09:56.790Z,974.85
2018-03-14T11:10:56.727Z,974.84
2018-03-14T11:11:56.627Z,974.81
2018-03-14T11:12:56.552Z,974.86
2018-03-14T11:13:56.467Z,974.86
2018-03-14T11:14:56.388Z,974.85
2018-03-14T11:15:56.310Z,974.85
2018-03-14T11:16:56.225Z,974.79
2018-03-14T11:17:56.139Z,974.77
2018-03-14T11:18:56.061Z,974.77
2018-03-14T11:19:55.982Z,974.76
2018-03-14T11:20:55.898Z,974.77
2018-03-14T11:21:55.817Z,974.75
2018-03-14T11:22:55.738Z,974.75
2018-03-14T11:23:55.660Z,974.73
2018-03-14T11:24:55.576Z,974.73
2018-03-14T11:25:55.495Z,974.70
2018-03-14T11:26:55.414Z,974.70
2018-03-14T11:27:55.339Z,974.69
2018-03-14T11:28:55.258Z,974.68
2018-03-14T11:29:55.178Z,974.66
2018-03-14T11:30:55.096Z,974.66
2018-03-14T11:31:55.018Z,974.66
2018-03-14T11:32:54.936Z,974.66
2018-03-14T11:33:54.858Z,974.60
2018-03-14T11:34:54.776Z,974.60
2018-03-14T11:35:54.695Z,974.59
2018-03-14T11:36:54.621Z,974.58
2018-03-14T11:37:54.541Z,974.60
2018-03-14T11:38:54.457Z,974.59
2018-03-14T11:39:54.375Z,974.53
2018-03-14T11:40:54.300Z,974.56
2018-03-14T11:41:54.217Z,974.57
2018-03-14T11:42:54.138Z,974.60
2018-03-14T11:43:54.056Z,974.56
2018-03-14T11:44:53.976Z,974.58
2018-03-14T11:45:53.891Z,974.58
2018-03-14T11:46:53.815Z,974.56
2018-03-14T11:47:53.736Z,974.58
2018-03-14T11:48:53.654Z,974.57
2018-03-14T11:49:53.568Z,974.57
2018-03-14T11:50:53.489Z,974.58
2018-03-14T11:51:53.411Z,974.57
2018-03-14T11:52:53.330Z,974.55
2018-03-14T11:53:53.249Z,974.56
2018-03-14T11:54:53.165Z,974.54
2018-03-14T11:55:53.088Z,974.55
2018-03-14T11:56:53.071Z,974.50
2018-03-14T11:57:52.923Z,974.50
2018-03-14T11:58:52.881Z,974.48
2018-03-14T11:59:52.809Z,974.48
2018-03-14T12:00:52.682Z,974.48
2018-03-14T12:01:52.600Z,974.48
2018-03-14T12:02:52.522Z,974.46
2018-03-14T12:03:52.441Z,974.43
2018-03-14T12:04:52.383Z,974.45
2018-03-14T12:05:52.295Z,974.44
2018-03-14T12:06:52.196Z,974.40
2018-03-14T12:07:52.119Z,974.40
2018-03-14T12:08:52.035Z,974.39
2018-03-14T12:09:51.957Z,974.35
2018-03-14T12:10:51.874Z,974.33
2018-03-14T12:11:51.794Z,974.32
2018-03-14T12:12:51.712Z,974.33
2018-03-14T12:13:51.633Z,974.30
2018-03-14T12:14:51.732Z,974.26
2018-03-14T12:15:51.469Z,974.24
2018-03-14T12:16:51.393Z,974.23
2018-03-14T12:17:51.308Z,974.26
2018-03-14T12:18:51.228Z,974.22
2018-03-14T12:19:51.149Z,974.22
2018-03-14T12:20:51.122Z,974.22
2018-03-14T12:21:50.985Z,974.22
2018-03-14T12:22:50.905Z,974.20
2018-03-14T12:23:50.826Z,974.17
2018-03-14T12:24:50.747Z,974.14
2018-03-14T12:25:50.664Z,974.19
2018-03-14T12:26:50.586Z,974.15
2018-03-14T12:27:50.501Z,974.15